Kgoro Pan Airport

BW-0015 · Ghanzi, Botswana

METAR history BW-0015 · Kgoro Pan Airport

Below you see METARs of the last few days. Select a year to browse through older METARs, from the year 2007 onwards.

July 16, 2024

Time Code Weather Temp. Visibility Ceiling Wind METAR/SPECI
02:00
V
16 °C 10 km+ - 150° 150° 9 kt METAR FBMN 160000Z 15009KT CAVOK 16/M07 Q1022
01:00
V
18 °C 10 km+ - 150° 150° 8 kt METAR FBMN 152300Z 15008KT CAVOK 18/M06 Q1022
00:00
V
18 °C 10 km+ - 160° 160° 8 kt METAR FBMN 152200Z 16008KT CAVOK 18/M06 Q1022

July 15, 2024

Time Code Weather Temp. Visibility Ceiling Wind METAR/SPECI
23:00
V
17 °C 10 km+ - 160° 160° 6 kt METAR FBMN 152100Z 16006KT CAVOK 17/M07 Q1023
22:00
V
17 °C 8 km - 180° 180° 6 kt METAR FBMN 152000Z 18006KT 140V250 8000 NSC 17/M06 Q1023
21:00
M
13 °C 6 km - 160° 160° 4 kt METAR FBMN 151900Z 16004KT 6000 NSC 13/M05 Q1022
20:00
M
15 °C 5 km - 160° 160° 3 kt METAR FBMN 151800Z 16003KT 5000 NSC 15/M04 Q1022
18:00
V
27 °C 10 km+ - 130° 130° 3 kt METAR FBMN 151600Z 13003KT CAVOK 27/M06 Q1021
17:00
V
29 °C 10 km+ - 150° 150° 5 kt METAR FBMN 151500Z 15005KT 120V190 CAVOK 29/M07 Q1021
16:00
V
29 °C 10 km+ - 100° 100° 5 kt METAR FBMN 151400Z 10005KT 070V150 CAVOK 29/M07 Q1021
15:00
V
29 °C 10 km+ - 150° 150° 4 kt METAR FBMN 151300Z 15004KT 090V180 CAVOK 29/M04 Q1021
14:00
V
28 °C 10 km+ - 160° 160° 5 kt METAR FBMN 151200Z 16005KT 120V220 CAVOK 28/M04 Q1022
13:00
V
26 °C 10 km+ - Var Var 4 kt METAR FBMN 151100Z VRB04KT CAVOK 26/M03 Q1023
12:00
V
24 °C 10 km+ - 150° 150° 5 kt METAR FBMN 151000Z 15005KT 100V210 CAVOK 24/M03 Q1024
11:00
V
21 °C 10 km+ - 130° 130° 6 kt METAR FBMN 150900Z 13006KT 090V180 CAVOK 21/M03 Q1025
10:00
V
17 °C 10 km+ - 130° 130° 9 kt METAR FBMN 150800Z 13009KT CAVOK 17/M04 Q1025
09:00
V
15 °C 10 km+ - 140° 140° 9 kt METAR FBMN 150700Z 14009KT CAVOK 15/M04 Q1025
08:00
V
12 °C 10 km+ - 140° 140° 8 kt METAR FBMN 150600Z 14008KT CAVOK 12/M05 Q1023
07:00
V
12 °C 10 km+ - 140° 140° 9 kt METAR FBMN 150500Z 14009KT CAVOK 12/M05 Q1023
06:00
V
13 °C 10 km+ - 150° 150° 8 kt METAR FBMN 150400Z 15008KT CAVOK 13/05 Q1023
05:00
V
13 °C 10 km+ - 150° 150° 6 kt METAR FBMN 150300Z 15006KT CAVOK 13/M05 Q1022
04:00
M
5 °C 7 km - 140° 140° 3 kt METAR FBMN 150200Z 14003KT 7000 NSC 05/M04 Q1022
03:00
M
6 °C 7 km - 360° 360° 0 kt METAR FBMN 150100Z 00000KT 7000 NSC 06/M05 Q1023
02:00
M
8 °C 6 km - 250° 250° 4 kt METAR FBMN 150000Z 25004KT 210V300 6000 NSC 08/M05 Q1023
01:00
M
8 °C 7 km - 360° 360° 0 kt METAR FBMN 142300Z 00000KT 7000 NSC 08/M04 Q1023
00:00
V
10 °C 9 km - Var Var 2 kt METAR FBMN 142200Z VRB02KT 9000 NSC 10/M05 Q1023

July 14, 2024

Time Code Weather Temp. Visibility Ceiling Wind METAR/SPECI
23:00
V
12 °C 8 km - Var Var 2 kt METAR FBMN 142100Z VRB02KT 8000 NSC 12/M04 Q1023
22:00
V
17 °C 8 km - 140° 140° 3 kt METAR FBMN 142000Z 14003KT 8000 NSC 17/M04 Q1023
21:00
M
15 °C 7 km - Var Var 2 kt METAR FBMN 141900Z VRB02KT 7000 NSC 15/M03 Q1022
20:00
M
17 °C 7 km - Var Var 2 kt METAR FBMN 141800Z VRB02KT 7000 NSC 17/M03 Q1022
19:00
V
19 °C 9 km - Var Var 2 kt METAR FBMN 141700Z VRB02KT 9000 NSC 19/M02 Q1021
18:00
V
25 °C 10 km+ - 250° 250° 4 kt METAR FBMN 141600Z 25004KT CAVOK 25/M02 Q1021
17:00
V
29 °C 10 km+ - 230° 230° 4 kt METAR FBMN 141500Z 23004KT 150V280 CAVOK 29/M04 Q1021
16:00
V
30 °C 10 km+ - Var Var 5 kt METAR FBMN 141400Z VRB05KT CAVOK 30/M04 Q1021
15:00
V
29 °C 10 km+ - 150° 150° 4 kt METAR FBMN 141300Z 15004KT 080V250 CAVOK 29/M04 Q1021
14:00
V
29 °C 10 km+ - 230° 230° 5 kt METAR FBMN 141200Z 23005KT 210V290 CAVOK 29/M02 Q1022
13:00
V
28 °C 10 km+ - Var Var 5 kt METAR FBMN 141100Z VRB05KT CAVOK 28/M02 Q1022
12:00
V
26 °C 10 km+ - Var Var 3 kt METAR FBMN 141000Z VRB03KT CAVOK 26/00 Q1023
11:00
V
25 °C 10 km+ - 260° 260° 3 kt METAR FBMN 140900Z 26003KT 220V320 CAVOK 25/00 Q1024
10:00
V
21 °C 10 km+ - 020° 020° 5 kt METAR FBMN 140800Z 02005KT 340V050 CAVOK 21/00 Q1023
09:00
V
16 °C 10 km+ - 020° 020° 4 kt METAR FBMN 140700Z 02004KT 350V050 CAVOK 16/M02 Q1023
08:00
V
9 °C 10 km+ - Var Var 2 kt METAR FBMN 140600Z VRB02KT CAVOK 09/M03 Q1022
07:00
V
6 °C 10 km+ - Var Var 2 kt METAR FBMN 140500Z VRB02KT CAVOK 06/M04 Q1022
06:00
V
7 °C 10 km+ - 070° 070° 3 kt METAR FBMN 140400Z 07003KT CAVOK 07/M05 Q1021
05:00
V
10 °C 10 km+ - 060° 060° 6 kt METAR FBMN 140300Z 06006KT CAVOK 10/M05 Q1021
04:00
V
8 °C 9 km - 090° 090° 3 kt METAR FBMN 140200Z 09003KT 050V110 9000 NSC 08/M04 Q1021
03:00
V
11 °C 10 km+ - 100° 100° 2 kt METAR FBMN 140100Z 10002KT CAVOK 11/M04 Q1021
02:00
M
8 °C 6 km - 360° 360° 0 kt METAR FBMN 140000Z 00000KT 6000 NSC 08/M03 Q1021
01:00
M
9 °C 6 km - 210° 210° 1 kt METAR FBMN 132300Z 21001KT 6000 NSC 09/M04 Q1021
00:00
M
11 °C 6 km - 030° 030° 2 kt METAR FBMN 132200Z 03002KT 6000 NSC 11/M03 Q1022

July 13, 2024

Time Code Weather Temp. Visibility Ceiling Wind METAR/SPECI
23:00
M
12 °C 7 km - 090° 090° 2 kt METAR FBMN 132100Z 09002KT 7000 NSC 12/M04 Q1022
22:00
V
12 °C 8 km - 070° 070° 2 kt METAR FBMN 132000Z 07002KT 8000 NSC 12/M03 Q1022
21:00
V
14 °C 10 km+ - Var Var 1 kt METAR FBMN 131900Z VRB01KT CAVOK 14/M03 Q1022
20:00
V
17 °C 10 km+ - Var Var 1 kt METAR FBMN 131800Z VRB01KT CAVOK 17/M03 Q1021
19:00
M
19 °C 7 km - Var Var 1 kt METAR FBMN 131700Z VRB01KT 7000 NSC 19/M02 Q1021
18:00
V
26 °C 10 km+ - 320° 320° 3 kt METAR FBMN 131600Z 32003KT CAVOK 26/M03 Q1020
17:00
V
29 °C 10 km+ - 320° 320° 4 kt METAR FBMN 131500Z 32004KT 270V020 CAVOK 29/M04 Q1020
16:00
V
30 °C 10 km+ - 290° 290° 4 kt METAR FBMN 131400Z 29004KT 230V350 CAVOK 30/M05 Q1020
15:00
V
30 °C 10 km+ - 310° 310° 4 kt METAR FBMN 131300Z 31004KT 250V040 CAVOK 30/M04 Q1020
14:00
V
29 °C 10 km+ - Var Var 3 kt METAR FBMN 131200Z VRB03KT CAVOK 29/M05 Q1020
13:00
V
29 °C 10 km+ - Var Var 5 kt METAR FBMN 131100Z VRB05KT CAVOK 29/M03 Q1021
12:00
V
27 °C 10 km+ - 020° 020° 5 kt METAR FBMN 131000Z 02005KT 330V070 CAVOK 27/00 Q1022
11:00
V
25 °C 10 km+ - 020° 020° 7 kt METAR FBMN 130900Z 02007KT 350V060 CAVOK 25/02 Q1023
10:00
V
21 °C 10 km+ - 010° 010° 6 kt METAR FBMN 130800Z 01006KT 330V060 CAVOK 21/00 Q1023
09:00
V
15 °C 10 km+ - 020° 020° 4 kt METAR FBMN 130700Z 02004KT 340V070 CAVOK 15/M02 Q1023
08:00
M
8 °C 7 km - Var Var 2 kt METAR FBMN 130600Z VRB02KT 7000 NSC 08/M03 Q1022
Report a change